createdAt,value
2023-11-27T00:00:29.800Z,18.92
2023-11-27T00:03:05.942Z,18.30
2023-11-27T00:05:34.067Z,17.70
2023-11-27T00:08:02.223Z,17.10
2023-11-27T00:10:31.697Z,16.42
2023-11-27T00:13:01.007Z,16.35
2023-11-27T00:15:29.636Z,16.60
2023-11-27T00:17:57.946Z,17.42
2023-11-27T00:20:26.086Z,16.80
2023-11-27T00:22:55.037Z,17.88
2023-11-27T00:25:23.783Z,16.73
2023-11-27T00:27:53.482Z,16.38
2023-11-27T00:30:21.828Z,15.55
2023-11-27T00:32:50.744Z,15.10
2023-11-27T00:35:18.924Z,16.10
2023-11-27T00:37:46.987Z,14.80
2023-11-27T00:40:15.244Z,14.85
2023-11-27T00:42:43.917Z,15.40
2023-11-27T00:45:14.693Z,16.02
2023-11-27T00:47:43.056Z,16.95
2023-11-27T00:50:11.595Z,14.73
2023-11-27T00:52:39.717Z,15.27
2023-11-27T00:55:08.190Z,13.48
2023-11-27T00:57:37.161Z,12.68
2023-11-27T01:00:07.014Z,14.13
2023-11-27T01:02:36.664Z,12.95
2023-11-27T01:05:05.812Z,12.45
2023-11-27T01:07:33.981Z,12.63
2023-11-27T01:10:02.173Z,13.63
2023-11-27T01:12:30.841Z,14.05
2023-11-27T01:14:59.170Z,13.18
2023-11-27T01:17:27.531Z,13.57
2023-11-27T01:19:57.819Z,14.93
2023-11-27T01:22:25.971Z,14.73
2023-11-27T01:24:54.151Z,14.85
2023-11-27T01:27:22.245Z,16.15
2023-11-27T01:29:50.397Z,17.05
2023-11-27T01:32:18.531Z,18.98
2023-11-27T01:34:46.621Z,17.73
2023-11-27T01:37:16.369Z,18.15
2023-11-27T01:39:44.463Z,20.13
2023-11-27T01:42:12.703Z,19.85
2023-11-27T01:44:41.410Z,18.48
2023-11-27T01:47:10.933Z,18.10
2023-11-27T01:49:40.238Z,18.55
2023-11-27T01:52:09.941Z,17.42
2023-11-27T01:54:41.831Z,18.35
2023-11-27T01:57:13.238Z,21.23
2023-11-27T01:59:41.562Z,18.83
2023-11-27T02:02:09.902Z,18.95
2023-11-27T02:04:38.584Z,18.35
2023-11-27T02:07:08.021Z,18.45
2023-11-27T02:09:37.125Z,17.40
2023-11-27T02:12:07.353Z,19.02
2023-11-27T02:14:35.529Z,19.00
2023-11-27T02:17:04.194Z,18.98
2023-11-27T02:19:32.489Z,18.02
2023-11-27T02:22:00.668Z,18.90
2023-11-27T02:24:30.244Z,19.50
2023-11-27T02:26:58.412Z,18.75
2023-11-27T02:29:26.517Z,17.58
2023-11-27T02:31:54.835Z,18.63
2023-11-27T02:34:23.127Z,17.52
2023-11-27T02:36:51.188Z,16.77
2023-11-27T02:39:19.416Z,14.63
2023-11-27T02:41:49.060Z,14.55
2023-11-27T02:44:17.147Z,14.98
2023-11-27T02:46:45.520Z,14.48
2023-11-27T02:49:14.678Z,14.98
2023-11-27T02:51:43.186Z,14.05
2023-11-27T02:54:11.747Z,13.02
2023-11-27T02:56:39.993Z,13.68
2023-11-27T02:59:09.923Z,13.65
2023-11-27T03:01:38.193Z,14.57
2023-11-27T03:04:06.566Z,14.48
2023-11-27T03:06:34.115Z,13.93
2023-11-27T03:09:02.298Z,13.98
2023-11-27T03:11:30.446Z,13.27
2023-11-27T03:13:58.610Z,12.57
2023-11-27T03:16:29.920Z,12.93
2023-11-27T03:18:58.211Z,14.48
2023-11-27T03:21:26.504Z,13.55
2023-11-27T03:23:54.716Z,12.65
2023-11-27T03:26:23.289Z,14.50
2023-11-27T03:28:51.413Z,15.18
2023-11-27T03:31:19.799Z,15.13
2023-11-27T03:33:50.584Z,14.07
2023-11-27T03:36:18.705Z,14.57
2023-11-27T03:38:47.231Z,15.02
2023-11-27T03:41:19.598Z,14.70
2023-11-27T03:46:15.878Z,15.57
2023-11-27T03:48:44.938Z,16.00
2023-11-27T03:51:14.486Z,15.35
2023-11-27T03:53:42.818Z,15.43
2023-11-27T03:56:11.337Z,14.95
2023-11-27T03:58:39.612Z,13.80
2023-11-27T04:01:08.437Z,15.43
2023-11-27T04:03:38.512Z,15.02
2023-11-27T04:06:07.222Z,13.90
2023-11-27T04:08:39.885Z,14.63
2023-11-27T04:11:14.491Z,12.45
2023-11-27T04:13:42.931Z,11.55
2023-11-27T04:16:11.923Z,11.55
2023-11-27T04:18:40.372Z,11.98
2023-11-27T04:21:09.366Z,9.63
2023-11-27T04:23:38.903Z,10.75
2023-11-27T04:26:07.566Z,10.82
2023-11-27T04:28:35.931Z,10.98
2023-11-27T04:31:06.205Z,11.13
2023-11-27T04:33:35.438Z,10.50
2023-11-27T04:36:03.882Z,12.00
2023-11-27T04:38:32.075Z,12.15
2023-11-27T04:41:03.453Z,12.40
2023-11-27T04:43:31.748Z,12.38
2023-11-27T04:46:00.043Z,11.85
2023-11-27T04:48:28.189Z,12.10
2023-11-27T04:50:56.480Z,11.95
2023-11-27T04:53:24.544Z,10.88
2023-11-27T04:55:52.842Z,10.25
2023-11-27T04:58:22.871Z,10.80
2023-11-27T05:00:51.024Z,12.00
2023-11-27T05:03:19.261Z,12.70
2023-11-27T05:05:47.587Z,13.75
2023-11-27T05:08:16.852Z,15.48
2023-11-27T05:10:47.613Z,14.70
2023-11-27T05:13:17.241Z,14.45
2023-11-27T05:15:46.972Z,15.65
2023-11-27T05:18:15.138Z,15.15
2023-11-27T05:20:43.810Z,16.45
2023-11-27T05:23:12.116Z,17.13
2023-11-27T05:25:40.314Z,17.27
2023-11-27T05:28:08.527Z,17.95
2023-11-27T05:30:36.761Z,18.90
2023-11-27T05:33:07.122Z,19.08
2023-11-27T05:35:35.376Z,19.73
2023-11-27T05:38:03.992Z,18.85
2023-11-27T05:40:32.142Z,19.00
2023-11-27T05:43:06.397Z,19.58
2023-11-27T05:45:35.514Z,20.92
2023-11-27T05:48:07.244Z,19.55
2023-11-27T05:50:35.297Z,20.92
2023-11-27T05:53:03.574Z,19.63
2023-11-27T05:55:31.733Z,20.70
2023-11-27T05:58:00.386Z,17.73
2023-11-27T06:00:28.587Z,20.33
2023-11-27T06:02:56.825Z,20.05
2023-11-27T06:05:26.851Z,20.88
2023-11-27T06:07:55.066Z,20.98
2023-11-27T06:10:23.371Z,21.48
2023-11-27T06:12:51.848Z,24.63
2023-11-27T06:15:20.098Z,24.33
2023-11-27T06:17:48.552Z,24.73
2023-11-27T06:20:16.891Z,24.83
2023-11-27T06:22:46.354Z,23.02
2023-11-27T06:25:14.719Z,24.10
2023-11-27T06:27:42.844Z,24.13
2023-11-27T06:30:12.906Z,23.42
2023-11-27T06:32:41.641Z,23.33
2023-11-27T06:35:13.478Z,23.33
2023-11-27T06:37:41.885Z,25.27
2023-11-27T06:40:13.221Z,23.63
2023-11-27T06:42:41.464Z,24.33
2023-11-27T06:45:11.138Z,24.33
2023-11-27T06:47:39.425Z,24.63
2023-11-27T06:50:08.545Z,24.45
2023-11-27T06:52:36.819Z,25.92
2023-11-27T06:55:06.465Z,26.30
2023-11-27T06:57:36.067Z,26.17
2023-11-27T07:00:05.199Z,25.88
2023-11-27T07:02:33.467Z,27.48
2023-11-27T07:05:01.714Z,26.65
2023-11-27T07:07:30.268Z,27.17
2023-11-27T07:09:58.504Z,26.67
2023-11-27T07:12:26.607Z,29.38
2023-11-27T07:14:56.179Z,30.30
2023-11-27T07:17:24.649Z,31.08
2023-11-27T07:19:53.775Z,31.92
2023-11-27T07:22:21.816Z,32.13
2023-11-27T07:24:52.063Z,32.85
2023-11-27T07:27:20.504Z,32.33
2023-11-27T07:29:49.058Z,33.22
2023-11-27T07:32:18.717Z,34.65
2023-11-27T07:34:46.810Z,33.40
2023-11-27T07:37:15.328Z,35.28
2023-11-27T07:39:45.832Z,33.85
2023-11-27T07:42:16.005Z,34.58
2023-11-27T07:44:45.480Z,34.95
2023-11-27T07:47:14.147Z,35.67
2023-11-27T07:49:43.724Z,36.80
2023-11-27T07:52:12.903Z,39.13
2023-11-27T07:54:43.017Z,36.40
2023-11-27T07:57:11.144Z,37.58
2023-11-27T07:59:39.237Z,38.38
2023-11-27T08:02:08.216Z,38.85
2023-11-27T08:04:36.445Z,39.72
2023-11-27T08:07:07.923Z,39.75
2023-11-27T08:09:36.531Z,41.80
2023-11-27T08:12:04.898Z,42.45
2023-11-27T08:14:32.987Z,42.83
2023-11-27T08:17:01.222Z,43.25
2023-11-27T08:19:29.395Z,44.15
2023-11-27T08:22:03.683Z,42.53
2023-11-27T08:24:34.930Z,43.10
2023-11-27T08:27:03.770Z,41.95
2023-11-27T08:29:32.644Z,43.28
2023-11-27T08:32:01.611Z,43.20
2023-11-27T08:34:30.740Z,44.80
2023-11-27T08:37:01.267Z,45.50
2023-11-27T08:39:29.547Z,43.35
2023-11-27T08:41:59.342Z,43.00
2023-11-27T08:44:27.923Z,42.10
2023-11-27T08:46:56.196Z,45.72
2023-11-27T08:49:24.472Z,45.53
2023-11-27T08:51:52.536Z,46.08
2023-11-27T08:54:20.775Z,48.65
2023-11-27T08:56:49.186Z,49.38
2023-11-27T08:59:18.707Z,47.58
2023-11-27T09:01:47.727Z,49.47
2023-11-27T09:04:16.059Z,47.65
2023-11-27T09:06:44.219Z,48.47
2023-11-27T09:09:12.840Z,49.78
2023-11-27T09:11:41.029Z,49.35
2023-11-27T09:14:09.774Z,50.45
2023-11-27T09:16:39.523Z,52.17
2023-11-27T09:19:08.421Z,53.85
2023-11-27T09:21:36.539Z,52.60
2023-11-27T09:24:04.864Z,54.92
2023-11-27T09:26:33.615Z,54.65
2023-11-27T09:29:01.798Z,54.97
2023-11-27T09:31:30.389Z,57.88
2023-11-27T09:34:00.101Z,56.78
2023-11-27T09:36:28.180Z,61.25
2023-11-27T09:38:57.122Z,61.50
2023-11-27T09:41:25.416Z,62.08
2023-11-27T09:43:54.052Z,62.58
2023-11-27T09:46:25.542Z,56.72
2023-11-27T09:48:58.616Z,57.47
2023-11-27T09:51:28.645Z,57.92
2023-11-27T09:53:58.189Z,60.78
2023-11-27T09:56:29.210Z,61.63
2023-11-27T09:59:00.565Z,59.45
2023-11-27T10:01:29.685Z,59.73
2023-11-27T10:04:01.455Z,59.42
2023-11-27T10:06:36.108Z,58.97
2023-11-27T10:09:09.176Z,56.70
2023-11-27T10:11:38.014Z,56.80
2023-11-27T10:14:29.990Z,58.92
2023-11-27T10:16:59.779Z,58.50
2023-11-27T10:19:28.365Z,58.67
2023-11-27T10:21:59.106Z,49.55
2023-11-27T10:24:27.407Z,51.88
2023-11-27T10:26:57.534Z,49.80
2023-11-27T10:29:29.148Z,51.42
2023-11-27T10:32:00.584Z,49.67
2023-11-27T10:34:29.113Z,49.85
2023-11-27T10:37:01.971Z,43.22
2023-11-27T10:39:33.719Z,43.83
2023-11-27T10:42:04.150Z,46.13
2023-11-27T10:44:36.328Z,45.08
2023-11-27T10:47:08.510Z,40.30
2023-11-27T10:52:10.424Z,40.33
2023-11-27T10:54:41.882Z,44.08
2023-11-27T10:57:11.825Z,44.22
2023-11-27T10:59:44.121Z,44.60
2023-11-27T11:04:52.520Z,39.95
2023-11-27T11:07:41.213Z,38.30
2023-11-27T11:10:12.598Z,38.25
2023-11-27T11:12:44.574Z,38.00
2023-11-27T11:15:16.231Z,39.45
2023-11-27T11:17:53.534Z,38.20
2023-11-27T11:20:29.879Z,40.10
2023-11-27T11:23:16.710Z,39.72
2023-11-27T11:25:52.264Z,40.10
2023-11-27T11:28:27.948Z,44.40
2023-11-27T11:31:16.888Z,42.10
2023-11-27T11:33:45.205Z,40.72
2023-11-27T11:36:15.262Z,38.47
2023-11-27T11:38:49.396Z,39.58
2023-11-27T11:41:18.690Z,39.92
2023-11-27T11:43:49.073Z,37.80
2023-11-27T11:46:18.375Z,39.53
2023-11-27T11:48:54.623Z,41.53
2023-11-27T11:51:25.007Z,35.00
2023-11-27T11:53:54.758Z,33.95
2023-11-27T11:56:27.280Z,31.67
2023-11-27T11:58:59.116Z,30.83
2023-11-27T12:01:33.900Z,29.95
2023-11-27T12:04:06.882Z,27.98
2023-11-27T12:06:35.642Z,27.70
2023-11-27T12:09:05.326Z,26.10
2023-11-27T12:11:33.738Z,25.20
2023-11-27T12:14:06.790Z,21.55
2023-11-27T12:16:35.004Z,21.33
2023-11-27T12:19:03.370Z,18.25
2023-11-27T12:21:31.702Z,16.20
2023-11-27T12:24:00.056Z,15.85
2023-11-27T12:26:29.861Z,14.50
2023-11-27T12:28:58.237Z,15.52
2023-11-27T12:31:29.116Z,13.00
2023-11-27T12:33:58.382Z,13.35
2023-11-27T12:36:27.482Z,14.18
2023-11-27T12:38:55.928Z,13.13
2023-11-27T12:41:34.323Z,12.98
2023-11-27T12:44:15.182Z,13.25
2023-11-27T12:46:51.431Z,13.18
2023-11-27T12:49:22.062Z,13.07
2023-11-27T12:51:52.710Z,14.23
2023-11-27T12:54:23.171Z,14.45
2023-11-27T12:56:54.430Z,14.52
2023-11-27T12:59:25.219Z,14.73
2023-11-27T13:01:59.545Z,15.63
2023-11-27T13:04:32.219Z,14.57
2023-11-27T13:07:06.343Z,15.27
2023-11-27T13:09:35.792Z,16.42
2023-11-27T13:12:16.569Z,16.65
2023-11-27T13:14:45.103Z,17.45
2023-11-27T13:17:19.984Z,17.42
2023-11-27T13:19:51.205Z,17.92
2023-11-27T13:22:19.689Z,17.65
2023-11-27T13:24:48.329Z,17.13
2023-11-27T13:27:22.372Z,17.85
2023-11-27T13:29:52.071Z,18.17
2023-11-27T13:32:20.950Z,17.83
2023-11-27T13:34:57.898Z,17.33
2023-11-27T13:37:28.984Z,18.52
2023-11-27T13:39:59.485Z,19.27
2023-11-27T13:42:32.275Z,19.10
2023-11-27T13:45:01.315Z,19.95
2023-11-27T13:47:31.000Z,18.15
2023-11-27T13:49:59.352Z,19.27
2023-11-27T13:52:31.614Z,18.23
2023-11-27T13:55:01.254Z,18.75
2023-11-27T13:57:34.182Z,18.98
2023-11-27T14:00:02.913Z,19.42
2023-11-27T14:02:38.699Z,21.73
2023-11-27T14:05:09.850Z,19.95
2023-11-27T14:07:42.824Z,19.13
2023-11-27T14:10:23.969Z,19.13
2023-11-27T14:13:02.457Z,18.23
2023-11-27T14:15:40.931Z,17.65
2023-11-27T14:18:27.924Z,17.25
2023-11-27T14:21:10.094Z,18.00
2023-11-27T14:23:50.775Z,17.40
2023-11-27T14:26:37.651Z,17.27
2023-11-27T14:29:12.540Z,17.10
2023-11-27T14:31:40.932Z,16.88
2023-11-27T14:34:12.958Z,16.95
2023-11-27T14:39:17.427Z,15.88
2023-11-27T14:41:48.910Z,15.48
2023-11-27T14:44:21.976Z,15.55
2023-11-27T14:46:53.138Z,15.00
2023-11-27T14:49:21.496Z,16.25
2023-11-27T14:51:51.084Z,15.70
2023-11-27T14:54:19.345Z,15.55
2023-11-27T14:56:47.408Z,16.50
2023-11-27T14:59:15.407Z,16.30
2023-11-27T15:01:45.236Z,14.90
2023-11-27T15:04:15.248Z,15.63
2023-11-27T15:06:44.815Z,16.20
2023-11-27T15:09:22.762Z,15.88
2023-11-27T15:11:52.800Z,15.13
2023-11-27T15:14:21.480Z,15.00
2023-11-27T15:16:52.991Z,16.38
2023-11-27T15:19:22.030Z,14.73
2023-11-27T15:21:50.803Z,15.18
2023-11-27T15:24:19.031Z,15.50
2023-11-27T15:26:52.048Z,15.43
2023-11-27T15:29:20.434Z,15.60
2023-11-27T15:31:51.913Z,14.32
2023-11-27T15:34:21.093Z,15.23
2023-11-27T15:36:52.873Z,14.48
2023-11-27T15:39:24.100Z,15.88
2023-11-27T15:41:53.480Z,13.95
2023-11-27T15:44:21.924Z,14.25
2023-11-27T15:46:51.959Z,13.90
2023-11-27T15:49:20.273Z,13.68
2023-11-27T15:51:48.369Z,13.38
2023-11-27T15:54:17.707Z,13.65
2023-11-27T15:56:46.160Z,13.60
2023-11-27T15:59:14.944Z,13.88
2023-11-27T16:01:43.238Z,14.93
2023-11-27T16:04:14.274Z,14.52
2023-11-27T16:06:42.676Z,15.43
2023-11-27T16:09:11.268Z,15.02
2023-11-27T16:11:39.803Z,15.95
2023-11-27T16:14:14.378Z,14.98
2023-11-27T16:16:45.896Z,14.10
2023-11-27T16:19:15.939Z,13.75
2023-11-27T16:21:44.218Z,13.25
2023-11-27T16:24:14.068Z,12.77
2023-11-27T16:26:42.416Z,13.80
2023-11-27T16:29:11.944Z,13.43
2023-11-27T16:31:40.673Z,14.35
2023-11-27T16:34:08.954Z,13.98
2023-11-27T16:36:38.595Z,15.50
2023-11-27T16:39:09.208Z,15.80
2023-11-27T16:41:37.454Z,13.70
2023-11-27T16:44:05.939Z,13.40
2023-11-27T16:46:34.798Z,12.90
2023-11-27T16:49:02.981Z,13.00
2023-11-27T16:51:32.454Z,13.43
2023-11-27T16:54:02.460Z,12.88
2023-11-27T16:56:30.777Z,11.77
2023-11-27T16:58:58.747Z,10.32
2023-11-27T17:01:26.857Z,10.68
2023-11-27T17:03:58.617Z,11.80
2023-11-27T17:06:26.751Z,11.40
2023-11-27T17:08:56.111Z,11.15
2023-11-27T17:11:25.582Z,10.30
2023-11-27T17:13:54.697Z,10.05
2023-11-27T17:16:22.808Z,9.88
2023-11-27T17:18:51.474Z,8.65
2023-11-27T17:21:19.582Z,8.43
2023-11-27T17:23:47.592Z,7.35
2023-11-27T17:26:18.981Z,7.05
2023-11-27T17:28:48.634Z,7.53
2023-11-27T17:31:17.342Z,8.32
2023-11-27T17:33:46.819Z,7.65
2023-11-27T17:36:16.199Z,7.90
2023-11-27T17:38:45.265Z,6.32
2023-11-27T17:41:13.496Z,6.60
2023-11-27T17:43:41.883Z,7.28
2023-11-27T17:46:12.149Z,7.95
2023-11-27T17:48:40.338Z,8.73
2023-11-27T17:51:09.227Z,8.82
2023-11-27T17:53:37.523Z,8.90
2023-11-27T17:56:06.591Z,9.85
2023-11-27T17:58:34.863Z,8.15
2023-11-27T18:01:06.721Z,8.07
2023-11-27T18:03:36.492Z,8.07
2023-11-27T18:06:05.001Z,7.65
2023-11-27T18:08:35.741Z,8.40
2023-11-27T18:11:03.997Z,8.10
2023-11-27T18:13:32.344Z,8.30
2023-11-27T18:16:00.413Z,7.18
2023-11-27T18:18:28.625Z,8.10
2023-11-27T18:20:58.195Z,7.60
2023-11-27T18:23:26.447Z,7.78
2023-11-27T18:25:55.207Z,8.18
2023-11-27T18:28:23.334Z,8.88
2023-11-27T18:30:51.558Z,8.73
2023-11-27T18:33:20.796Z,9.77
2023-11-27T18:35:48.928Z,9.77
2023-11-27T18:38:18.507Z,9.80
2023-11-27T18:40:48.616Z,9.23
2023-11-27T18:43:17.205Z,8.20
2023-11-27T18:45:45.421Z,7.63
2023-11-27T18:48:13.616Z,7.72
2023-11-27T18:50:41.872Z,8.00
2023-11-27T18:53:09.990Z,8.73
2023-11-27T18:55:39.697Z,7.97
2023-11-27T18:58:09.097Z,8.48
2023-11-27T19:00:37.230Z,7.18
2023-11-27T19:03:05.378Z,8.27
2023-11-27T19:05:33.823Z,7.55
2023-11-27T19:08:01.956Z,8.90
2023-11-27T19:10:30.025Z,9.23
2023-11-27T19:13:00.979Z,10.70
2023-11-27T19:15:31.362Z,10.23
2023-11-27T19:17:59.536Z,11.13
2023-11-27T19:20:27.788Z,11.75
2023-11-27T19:22:56.069Z,12.27
2023-11-27T19:25:24.515Z,13.10
2023-11-27T19:27:52.640Z,13.70
2023-11-27T19:30:23.101Z,14.10
2023-11-27T19:32:51.404Z,15.57
2023-11-27T19:35:20.174Z,14.43
2023-11-27T19:37:49.470Z,14.88
2023-11-27T19:40:17.703Z,15.70
2023-11-27T19:42:45.769Z,15.48
2023-11-27T19:45:14.118Z,16.23
2023-11-27T19:47:44.824Z,16.67
2023-11-27T19:50:16.293Z,16.60
2023-11-27T19:52:44.563Z,17.65
2023-11-27T19:55:12.933Z,17.08
2023-11-27T19:57:41.865Z,18.02
2023-11-27T20:00:11.982Z,18.13
2023-11-27T20:02:40.364Z,19.15
2023-11-27T20:05:11.109Z,18.63
2023-11-27T20:07:39.315Z,17.98
2023-11-27T20:10:10.969Z,19.27
2023-11-27T20:12:39.085Z,18.58
2023-11-27T20:15:11.642Z,17.17
2023-11-27T20:17:40.591Z,18.98
2023-11-27T20:20:15.776Z,17.30
2023-11-27T20:22:44.225Z,17.13
2023-11-27T20:25:13.247Z,17.30
2023-11-27T20:27:44.136Z,16.60
2023-11-27T20:30:13.682Z,14.52
2023-11-27T20:32:42.036Z,15.00
2023-11-27T20:35:12.250Z,14.55
2023-11-27T20:37:41.474Z,15.20
2023-11-27T20:40:11.670Z,14.20
2023-11-27T20:42:40.636Z,14.38
2023-11-27T20:45:10.277Z,13.13
2023-11-27T20:47:39.700Z,13.68
2023-11-27T20:50:08.980Z,12.32
2023-11-27T20:52:38.780Z,13.38
2023-11-27T20:55:08.623Z,11.77
2023-11-27T20:57:38.214Z,11.57
2023-11-27T21:00:11.629Z,10.98
2023-11-27T21:02:43.737Z,9.98
2023-11-27T21:05:12.572Z,10.52
2023-11-27T21:07:42.618Z,10.23
2023-11-27T21:10:12.433Z,10.25
2023-11-27T21:12:42.688Z,12.20
2023-11-27T21:15:12.550Z,10.95
2023-11-27T21:17:41.357Z,11.50
2023-11-27T21:20:13.840Z,11.45
2023-11-27T21:25:14.958Z,11.23
2023-11-27T21:27:44.056Z,11.13
2023-11-27T21:30:16.340Z,11.20
2023-11-27T21:32:46.909Z,11.57
2023-11-27T21:35:15.101Z,11.73
2023-11-27T21:37:45.552Z,11.93
2023-11-27T21:40:14.401Z,13.00
2023-11-27T21:42:42.456Z,12.57
2023-11-27T21:45:11.497Z,13.35
2023-11-27T21:47:39.804Z,13.13
2023-11-27T21:50:09.219Z,13.43
2023-11-27T21:52:37.573Z,12.90
2023-11-27T21:55:07.842Z,12.98
2023-11-27T21:57:36.052Z,10.68
2023-11-27T22:00:07.843Z,10.45
2023-11-27T22:02:36.087Z,8.95
2023-11-27T22:05:04.798Z,8.15
2023-11-27T22:07:33.975Z,7.05
2023-11-27T22:10:02.359Z,7.53
2023-11-27T22:12:31.835Z,7.05
2023-11-27T22:14:59.982Z,7.50
2023-11-27T22:17:28.150Z,7.88
2023-11-27T22:19:56.388Z,8.60
2023-11-27T22:22:24.522Z,8.48
2023-11-27T22:24:52.771Z,8.32
2023-11-27T22:27:20.828Z,8.30
2023-11-27T22:29:50.877Z,8.20
2023-11-27T22:32:19.182Z,9.15
2023-11-27T22:34:47.387Z,8.70
2023-11-27T22:37:16.177Z,8.57
2023-11-27T22:39:44.274Z,8.18
2023-11-27T22:42:12.581Z,9.18
2023-11-27T22:44:40.865Z,8.63
2023-11-27T22:47:10.588Z,8.55
2023-11-27T22:49:38.692Z,8.30
2023-11-27T22:52:07.239Z,9.80
2023-11-27T22:54:35.861Z,9.68
2023-11-27T22:57:04.040Z,9.15
2023-11-27T22:59:32.148Z,9.50
2023-11-27T23:02:00.382Z,10.38
2023-11-27T23:04:29.963Z,9.65
2023-11-27T23:06:58.008Z,10.80
2023-11-27T23:09:26.021Z,9.90
2023-11-27T23:11:53.971Z,9.85
2023-11-27T23:14:24.121Z,9.05
2023-11-27T23:16:52.857Z,7.75
2023-11-27T23:19:21.279Z,7.88
2023-11-27T23:21:51.072Z,7.47
2023-11-27T23:24:26.505Z,6.70
2023-11-27T23:26:55.811Z,6.50
2023-11-27T23:29:23.928Z,6.80
2023-11-27T23:31:54.358Z,5.88
2023-11-27T23:34:25.270Z,6.50
2023-11-27T23:36:54.985Z,5.90
2023-11-27T23:39:23.564Z,5.20
2023-11-27T23:41:54.007Z,5.50
2023-11-27T23:44:22.112Z,5.22
2023-11-27T23:46:52.263Z,5.13
2023-11-27T23:49:20.804Z,5.07
2023-11-27T23:51:49.155Z,5.50
2023-11-27T23:54:18.681Z,6.88
2023-11-27T23:56:46.776Z,8.32
2023-11-27T23:59:15.269Z,8.55
